sensor_id;sensor_type;location;lat;lon;timestamp;P1;durP1;ratioP1;P2;durP2;ratioP2
27804;SDS011;15183;51.350;11.102;2023-03-13T00:01:34;14.25;;;3.40;;
27804;SDS011;15183;51.350;11.102;2023-03-13T00:04:05;12.90;;;3.72;;
27804;SDS011;15183;51.350;11.102;2023-03-13T00:06:33;11.55;;;3.45;;
27804;SDS011;15183;51.350;11.102;2023-03-13T00:09:02;11.05;;;3.60;;
27804;SDS011;15183;51.350;11.102;2023-03-13T00:11:30;14.95;;;3.55;;
27804;SDS011;15183;51.350;11.102;2023-03-13T00:13:57;14.77;;;3.60;;
27804;SDS011;15183;51.350;11.102;2023-03-13T00:16:27;19.27;;;4.13;;
27804;SDS011;15183;51.350;11.102;2023-03-13T00:18:55;14.95;;;3.67;;
27804;SDS011;15183;51.350;11.102;2023-03-13T00:21:23;13.70;;;3.80;;
27804;SDS011;15183;51.350;11.102;2023-03-13T00:23:51;12.18;;;3.63;;
27804;SDS011;15183;51.350;11.102;2023-03-13T00:26:20;10.48;;;3.53;;
27804;SDS011;15183;51.350;11.102;2023-03-13T00:28:48;15.63;;;3.60;;
27804;SDS011;15183;51.350;11.102;2023-03-13T00:31:17;15.65;;;3.72;;
27804;SDS011;15183;51.350;11.102;2023-03-13T00:33:48;16.05;;;3.45;;
27804;SDS011;15183;51.350;11.102;2023-03-13T00:36:25;14.77;;;3.63;;
27804;SDS011;15183;51.350;11.102;2023-03-13T00:38:54;14.32;;;4.05;;
27804;SDS011;15183;51.350;11.102;2023-03-13T00:41:22;15.48;;;3.22;;
27804;SDS011;15183;51.350;11.102;2023-03-13T00:43:52;18.95;;;3.58;;
27804;SDS011;15183;51.350;11.102;2023-03-13T00:46:20;17.40;;;3.85;;
27804;SDS011;15183;51.350;11.102;2023-03-13T00:52:30;13.23;;;3.00;;
27804;SDS011;15183;51.350;11.102;2023-03-13T00:54:57;12.75;;;3.35;;
27804;SDS011;15183;51.350;11.102;2023-03-13T00:57:23;12.18;;;3.50;;
27804;SDS011;15183;51.350;11.102;2023-03-13T00:59:50;17.92;;;3.67;;
27804;SDS011;15183;51.350;11.102;2023-03-13T01:02:16;17.45;;;4.22;;
27804;SDS011;15183;51.350;11.102;2023-03-13T01:04:42;17.02;;;3.83;;
27804;SDS011;15183;51.350;11.102;2023-03-13T01:07:09;18.08;;;4.07;;
27804;SDS011;15183;51.350;11.102;2023-03-13T01:09:35;15.05;;;3.22;;
27804;SDS011;15183;51.350;11.102;2023-03-13T01:12:02;13.32;;;3.25;;
27804;SDS011;15183;51.350;11.102;2023-03-13T01:14:28;14.55;;;3.38;;
27804;SDS011;15183;51.350;11.102;2023-03-13T01:16:55;20.70;;;3.97;;
27804;SDS011;15183;51.350;11.102;2023-03-13T01:19:21;13.95;;;2.85;;
27804;SDS011;15183;51.350;11.102;2023-03-13T01:21:48;17.95;;;2.92;;
27804;SDS011;15183;51.350;11.102;2023-03-13T01:24:14;11.20;;;3.47;;
27804;SDS011;15183;51.350;11.102;2023-03-13T01:30:23;13.82;;;2.95;;
27804;SDS011;15183;51.350;11.102;2023-03-13T01:32:50;13.55;;;3.22;;
27804;SDS011;15183;51.350;11.102;2023-03-13T01:35:16;14.27;;;3.45;;
27804;SDS011;15183;51.350;11.102;2023-03-13T01:37:44;15.50;;;3.33;;
27804;SDS011;15183;51.350;11.102;2023-03-13T01:40:10;11.77;;;3.28;;
27804;SDS011;15183;51.350;11.102;2023-03-13T01:42:50;16.80;;;3.30;;
27804;SDS011;15183;51.350;11.102;2023-03-13T01:48:42;15.23;;;3.75;;
27804;SDS011;15183;51.350;11.102;2023-03-13T01:51:32;17.20;;;3.00;;
27804;SDS011;15183;51.350;11.102;2023-03-13T01:54:13;14.13;;;2.78;;
27804;SDS011;15183;51.350;11.102;2023-03-13T01:57:09;17.00;;;3.45;;
27804;SDS011;15183;51.350;11.102;2023-03-13T01:59:52;14.65;;;3.00;;
27804;SDS011;15183;51.350;11.102;2023-03-13T02:02:32;9.50;;;2.80;;
27804;SDS011;15183;51.350;11.102;2023-03-13T02:05:01;17.42;;;3.67;;
27804;SDS011;15183;51.350;11.102;2023-03-13T02:07:41;13.68;;;4.00;;
27804;SDS011;15183;51.350;11.102;2023-03-13T02:10:12;11.82;;;3.35;;
27804;SDS011;15183;51.350;11.102;2023-03-13T02:12:41;16.63;;;3.17;;
27804;SDS011;15183;51.350;11.102;2023-03-13T02:15:13;14.38;;;2.75;;
27804;SDS011;15183;51.350;11.102;2023-03-13T02:17:45;14.68;;;3.53;;
27804;SDS011;15183;51.350;11.102;2023-03-13T02:20:14;13.82;;;3.58;;
27804;SDS011;15183;51.350;11.102;2023-03-13T02:27:57;12.52;;;2.80;;
27804;SDS011;15183;51.350;11.102;2023-03-13T02:30:29;15.70;;;3.17;;
27804;SDS011;15183;51.350;11.102;2023-03-13T02:32:57;15.98;;;3.10;;
27804;SDS011;15183;51.350;11.102;2023-03-13T02:35:25;15.90;;;3.92;;
27804;SDS011;15183;51.350;11.102;2023-03-13T02:37:56;17.25;;;3.03;;
27804;SDS011;15183;51.350;11.102;2023-03-13T02:40:27;14.65;;;3.20;;
27804;SDS011;15183;51.350;11.102;2023-03-13T02:42:59;15.32;;;2.80;;
27804;SDS011;15183;51.350;11.102;2023-03-13T02:45:29;14.35;;;3.20;;
27804;SDS011;15183;51.350;11.102;2023-03-13T02:47:55;12.27;;;3.28;;
27804;SDS011;15183;51.350;11.102;2023-03-13T02:50:22;14.90;;;3.25;;
27804;SDS011;15183;51.350;11.102;2023-03-13T02:52:50;15.13;;;3.35;;
27804;SDS011;15183;51.350;11.102;2023-03-13T02:55:31;11.80;;;2.42;;
27804;SDS011;15183;51.350;11.102;2023-03-13T02:58:05;18.95;;;3.30;;
27804;SDS011;15183;51.350;11.102;2023-03-13T03:00:32;17.20;;;3.42;;
27804;SDS011;15183;51.350;11.102;2023-03-13T03:03:00;14.15;;;3.15;;
27804;SDS011;15183;51.350;11.102;2023-03-13T03:05:26;15.13;;;3.33;;
27804;SDS011;15183;51.350;11.102;2023-03-13T03:07:53;14.57;;;2.85;;
27804;SDS011;15183;51.350;11.102;2023-03-13T03:10:19;10.13;;;2.75;;
27804;SDS011;15183;51.350;11.102;2023-03-13T03:12:45;18.85;;;2.97;;
27804;SDS011;15183;51.350;11.102;2023-03-13T03:15:12;18.73;;;2.95;;
27804;SDS011;15183;51.350;11.102;2023-03-13T03:17:38;12.95;;;2.13;;
27804;SDS011;15183;51.350;11.102;2023-03-13T03:20:05;20.58;;;3.65;;
27804;SDS011;15183;51.350;11.102;2023-03-13T03:22:37;16.10;;;3.08;;
27804;SDS011;15183;51.350;11.102;2023-03-13T03:25:05;14.15;;;3.22;;
27804;SDS011;15183;51.350;11.102;2023-03-13T03:27:33;13.63;;;2.97;;
27804;SDS011;15183;51.350;11.102;2023-03-13T03:30:04;16.15;;;3.13;;
27804;SDS011;15183;51.350;11.102;2023-03-13T03:32:31;15.57;;;3.00;;
27804;SDS011;15183;51.350;11.102;2023-03-13T03:34:57;15.45;;;3.33;;
27804;SDS011;15183;51.350;11.102;2023-03-13T03:37:24;11.27;;;2.72;;
27804;SDS011;15183;51.350;11.102;2023-03-13T03:39:50;8.95;;;2.97;;
27804;SDS011;15183;51.350;11.102;2023-03-13T03:42:16;11.90;;;3.08;;
27804;SDS011;15183;51.350;11.102;2023-03-13T03:44:43;9.88;;;2.75;;
27804;SDS011;15183;51.350;11.102;2023-03-13T03:47:09;16.15;;;3.15;;
27804;SDS011;15183;51.350;11.102;2023-03-13T03:49:36;13.48;;;2.92;;
27804;SDS011;15183;51.350;11.102;2023-03-13T03:52:02;14.65;;;3.38;;
27804;SDS011;15183;51.350;11.102;2023-03-13T03:54:29;17.38;;;3.00;;
27804;SDS011;15183;51.350;11.102;2023-03-13T03:56:55;10.85;;;2.72;;
27804;SDS011;15183;51.350;11.102;2023-03-13T03:59:21;11.25;;;3.63;;
27804;SDS011;15183;51.350;11.102;2023-03-13T04:01:48;11.48;;;2.80;;
27804;SDS011;15183;51.350;11.102;2023-03-13T04:04:14;18.15;;;3.15;;
27804;SDS011;15183;51.350;11.102;2023-03-13T04:06:40;12.57;;;3.55;;
27804;SDS011;15183;51.350;11.102;2023-03-13T04:09:07;12.95;;;3.22;;
27804;SDS011;15183;51.350;11.102;2023-03-13T04:11:33;10.57;;;2.72;;
27804;SDS011;15183;51.350;11.102;2023-03-13T04:14:00;19.30;;;3.08;;
27804;SDS011;15183;51.350;11.102;2023-03-13T04:16:26;14.55;;;3.00;;
27804;SDS011;15183;51.350;11.102;2023-03-13T04:18:52;17.00;;;3.33;;
27804;SDS011;15183;51.350;11.102;2023-03-13T04:21:19;16.42;;;2.80;;
27804;SDS011;15183;51.350;11.102;2023-03-13T04:23:45;12.13;;;3.15;;
27804;SDS011;15183;51.350;11.102;2023-03-13T04:26:12;14.20;;;3.67;;
27804;SDS011;15183;51.350;11.102;2023-03-13T04:28:38;16.80;;;3.65;;
27804;SDS011;15183;51.350;11.102;2023-03-13T04:31:05;15.45;;;3.13;;
27804;SDS011;15183;51.350;11.102;2023-03-13T04:33:31;10.52;;;3.22;;
27804;SDS011;15183;51.350;11.102;2023-03-13T04:35:57;16.73;;;2.78;;
27804;SDS011;15183;51.350;11.102;2023-03-13T04:38:24;9.32;;;2.38;;
27804;SDS011;15183;51.350;11.102;2023-03-13T04:40:51;14.20;;;3.47;;
27804;SDS011;15183;51.350;11.102;2023-03-13T04:43:17;15.82;;;3.20;;
27804;SDS011;15183;51.350;11.102;2023-03-13T04:45:44;15.55;;;2.65;;
27804;SDS011;15183;51.350;11.102;2023-03-13T04:48:11;14.00;;;3.10;;
27804;SDS011;15183;51.350;11.102;2023-03-13T04:50:38;14.63;;;2.88;;
27804;SDS011;15183;51.350;11.102;2023-03-13T04:53:04;14.15;;;2.95;;
27804;SDS011;15183;51.350;11.102;2023-03-13T04:55:30;11.07;;;2.72;;
27804;SDS011;15183;51.350;11.102;2023-03-13T04:57:57;9.48;;;2.92;;
27804;SDS011;15183;51.350;11.102;2023-03-13T05:00:23;14.43;;;2.60;;
27804;SDS011;15183;51.350;11.102;2023-03-13T05:02:50;11.02;;;2.53;;
27804;SDS011;15183;51.350;11.102;2023-03-13T05:05:16;13.32;;;3.35;;
27804;SDS011;15183;51.350;11.102;2023-03-13T05:07:43;15.75;;;3.15;;
27804;SDS011;15183;51.350;11.102;2023-03-13T05:10:09;12.70;;;3.17;;
27804;SDS011;15183;51.350;11.102;2023-03-13T05:16:17;12.50;;;3.42;;
27804;SDS011;15183;51.350;11.102;2023-03-13T05:18:44;11.88;;;2.40;;
27804;SDS011;15183;51.350;11.102;2023-03-13T05:21:10;15.85;;;4.05;;
27804;SDS011;15183;51.350;11.102;2023-03-13T05:23:37;16.63;;;4.40;;
27804;SDS011;15183;51.350;11.102;2023-03-13T05:26:03;14.35;;;4.53;;
27804;SDS011;15183;51.350;11.102;2023-03-13T05:28:30;15.90;;;4.20;;
27804;SDS011;15183;51.350;11.102;2023-03-13T05:30:56;16.58;;;4.22;;
27804;SDS011;15183;51.350;11.102;2023-03-13T05:33:23;11.88;;;3.47;;
27804;SDS011;15183;51.350;11.102;2023-03-13T05:35:49;12.65;;;3.17;;
27804;SDS011;15183;51.350;11.102;2023-03-13T05:38:15;12.93;;;2.80;;
27804;SDS011;15183;51.350;11.102;2023-03-13T05:40:42;13.23;;;2.53;;
27804;SDS011;15183;51.350;11.102;2023-03-13T05:46:51;10.35;;;2.13;;
27804;SDS011;15183;51.350;11.102;2023-03-13T05:49:17;12.82;;;2.33;;
27804;SDS011;15183;51.350;11.102;2023-03-13T05:51:44;14.10;;;2.67;;
27804;SDS011;15183;51.350;11.102;2023-03-13T05:54:10;11.15;;;2.83;;
27804;SDS011;15183;51.350;11.102;2023-03-13T05:56:36;8.65;;;2.38;;
27804;SDS011;15183;51.350;11.102;2023-03-13T05:59:03;9.60;;;2.25;;
27804;SDS011;15183;51.350;11.102;2023-03-13T06:05:11;6.88;;;1.90;;
27804;SDS011;15183;51.350;11.102;2023-03-13T06:07:37;9.90;;;2.08;;
27804;SDS011;15183;51.350;11.102;2023-03-13T06:10:04;9.88;;;2.17;;
27804;SDS011;15183;51.350;11.102;2023-03-13T06:12:31;12.00;;;2.45;;
27804;SDS011;15183;51.350;11.102;2023-03-13T06:14:57;8.48;;;3.17;;
27804;SDS011;15183;51.350;11.102;2023-03-13T06:17:24;9.93;;;2.00;;
27804;SDS011;15183;51.350;11.102;2023-03-13T06:19:50;7.40;;;1.83;;
27804;SDS011;15183;51.350;11.102;2023-03-13T06:22:17;6.97;;;1.80;;
27804;SDS011;15183;51.350;11.102;2023-03-13T06:24:43;5.95;;;1.92;;
27804;SDS011;15183;51.350;11.102;2023-03-13T06:27:11;10.88;;;2.50;;
27804;SDS011;15183;51.350;11.102;2023-03-13T06:29:37;6.45;;;1.58;;
27804;SDS011;15183;51.350;11.102;2023-03-13T06:32:04;9.05;;;2.10;;
27804;SDS011;15183;51.350;11.102;2023-03-13T06:34:31;6.03;;;1.95;;
27804;SDS011;15183;51.350;11.102;2023-03-13T06:36:57;6.53;;;1.98;;
27804;SDS011;15183;51.350;11.102;2023-03-13T06:39:25;6.18;;;2.08;;
27804;SDS011;15183;51.350;11.102;2023-03-13T06:41:51;6.38;;;1.92;;
27804;SDS011;15183;51.350;11.102;2023-03-13T06:44:17;7.70;;;1.70;;
27804;SDS011;15183;51.350;11.102;2023-03-13T06:46:44;6.82;;;1.85;;
27804;SDS011;15183;51.350;11.102;2023-03-13T06:49:10;8.23;;;2.10;;
27804;SDS011;15183;51.350;11.102;2023-03-13T06:51:37;7.63;;;2.10;;
27804;SDS011;15183;51.350;11.102;2023-03-13T06:54:03;6.20;;;1.88;;
27804;SDS011;15183;51.350;11.102;2023-03-13T06:56:29;6.68;;;1.45;;
27804;SDS011;15183;51.350;11.102;2023-03-13T06:58:56;7.35;;;1.67;;
27804;SDS011;15183;51.350;11.102;2023-03-13T07:01:23;3.63;;;1.38;;
27804;SDS011;15183;51.350;11.102;2023-03-13T07:03:49;6.45;;;1.30;;
27804;SDS011;15183;51.350;11.102;2023-03-13T07:06:16;5.50;;;1.60;;
27804;SDS011;15183;51.350;11.102;2023-03-13T07:08:43;5.65;;;1.33;;
27804;SDS011;15183;51.350;11.102;2023-03-13T07:11:10;3.17;;;1.48;;
27804;SDS011;15183;51.350;11.102;2023-03-13T07:13:38;4.05;;;1.55;;
27804;SDS011;15183;51.350;11.102;2023-03-13T07:16:06;5.22;;;1.70;;
27804;SDS011;15183;51.350;11.102;2023-03-13T07:18:35;4.78;;;1.33;;
27804;SDS011;15183;51.350;11.102;2023-03-13T07:21:03;2.38;;;1.35;;
27804;SDS011;15183;51.350;11.102;2023-03-13T07:23:30;2.15;;;0.90;;
27804;SDS011;15183;51.350;11.102;2023-03-13T07:26:03;4.28;;;1.30;;
27804;SDS011;15183;51.350;11.102;2023-03-13T07:28:33;4.72;;;1.30;;
27804;SDS011;15183;51.350;11.102;2023-03-13T07:31:07;3.22;;;1.13;;
27804;SDS011;15183;51.350;11.102;2023-03-13T07:33:42;4.75;;;1.40;;
27804;SDS011;15183;51.350;11.102;2023-03-13T07:36:09;3.28;;;1.25;;
27804;SDS011;15183;51.350;11.102;2023-03-13T07:38:38;4.13;;;1.33;;
27804;SDS011;15183;51.350;11.102;2023-03-13T07:41:05;3.15;;;1.25;;
27804;SDS011;15183;51.350;11.102;2023-03-13T07:43:32;2.33;;;1.13;;
27804;SDS011;15183;51.350;11.102;2023-03-13T07:46:00;3.63;;;1.20;;
27804;SDS011;15183;51.350;11.102;2023-03-13T07:48:29;4.38;;;1.48;;
27804;SDS011;15183;51.350;11.102;2023-03-13T07:51:09;2.55;;;1.20;;
27804;SDS011;15183;51.350;11.102;2023-03-13T07:53:38;3.97;;;0.95;;
27804;SDS011;15183;51.350;11.102;2023-03-13T07:56:06;2.00;;;1.00;;
27804;SDS011;15183;51.350;11.102;2023-03-13T07:58:36;2.92;;;1.15;;
27804;SDS011;15183;51.350;11.102;2023-03-13T08:01:11;1.73;;;1.20;;
27804;SDS011;15183;51.350;11.102;2023-03-13T08:03:43;5.82;;;1.42;;
27804;SDS011;15183;51.350;11.102;2023-03-13T08:06:12;3.17;;;1.33;;
27804;SDS011;15183;51.350;11.102;2023-03-13T08:08:42;2.17;;;1.08;;
27804;SDS011;15183;51.350;11.102;2023-03-13T08:13:40;3.15;;;1.40;;
27804;SDS011;15183;51.350;11.102;2023-03-13T08:16:08;2.13;;;1.00;;
27804;SDS011;15183;51.350;11.102;2023-03-13T08:18:40;3.00;;;0.93;;
27804;SDS011;15183;51.350;11.102;2023-03-13T08:21:10;3.25;;;1.15;;
27804;SDS011;15183;51.350;11.102;2023-03-13T08:23:40;2.33;;;1.48;;
27804;SDS011;15183;51.350;11.102;2023-03-13T08:26:08;3.10;;;1.90;;
27804;SDS011;15183;51.350;11.102;2023-03-13T08:28:42;2.45;;;1.00;;
27804;SDS011;15183;51.350;11.102;2023-03-13T08:31:12;2.58;;;1.02;;
27804;SDS011;15183;51.350;11.102;2023-03-13T08:33:47;3.58;;;0.90;;
27804;SDS011;15183;51.350;11.102;2023-03-13T08:36:21;2.58;;;1.10;;
27804;SDS011;15183;51.350;11.102;2023-03-13T08:38:51;2.05;;;0.98;;
27804;SDS011;15183;51.350;11.102;2023-03-13T08:41:20;1.85;;;1.08;;
27804;SDS011;15183;51.350;11.102;2023-03-13T08:43:56;2.30;;;1.27;;
27804;SDS011;15183;51.350;11.102;2023-03-13T08:46:23;2.47;;;1.30;;
27804;SDS011;15183;51.350;11.102;2023-03-13T08:48:51;1.75;;;1.10;;
27804;SDS011;15183;51.350;11.102;2023-03-13T08:51:20;1.60;;;1.00;;
27804;SDS011;15183;51.350;11.102;2023-03-13T08:53:49;2.42;;;0.93;;
27804;SDS011;15183;51.350;11.102;2023-03-13T08:56:17;1.27;;;1.15;;
27804;SDS011;15183;51.350;11.102;2023-03-13T08:58:49;1.58;;;0.82;;
27804;SDS011;15183;51.350;11.102;2023-03-13T09:01:17;0.82;;;0.82;;
27804;SDS011;15183;51.350;11.102;2023-03-13T09:03:44;2.15;;;0.95;;
27804;SDS011;15183;51.350;11.102;2023-03-13T09:06:10;2.67;;;1.33;;
27804;SDS011;15183;51.350;11.102;2023-03-13T09:08:38;5.15;;;2.25;;
27804;SDS011;15183;51.350;11.102;2023-03-13T09:11:06;1.38;;;1.27;;
27804;SDS011;15183;51.350;11.102;2023-03-13T09:13:41;3.30;;;1.42;;
27804;SDS011;15183;51.350;11.102;2023-03-13T09:16:11;1.33;;;1.17;;
27804;SDS011;15183;51.350;11.102;2023-03-13T09:18:49;3.13;;;2.08;;
27804;SDS011;15183;51.350;11.102;2023-03-13T09:21:21;5.15;;;3.15;;
27804;SDS011;15183;51.350;11.102;2023-03-13T09:23:49;3.63;;;2.70;;
27804;SDS011;15183;51.350;11.102;2023-03-13T09:26:18;4.50;;;2.72;;
27804;SDS011;15183;51.350;11.102;2023-03-13T09:28:46;3.25;;;1.77;;
27804;SDS011;15183;51.350;11.102;2023-03-13T09:31:13;5.10;;;2.95;;
27804;SDS011;15183;51.350;11.102;2023-03-13T09:33:46;4.35;;;3.03;;
27804;SDS011;15183;51.350;11.102;2023-03-13T09:36:14;4.18;;;2.65;;
27804;SDS011;15183;51.350;11.102;2023-03-13T09:38:42;3.30;;;2.28;;
27804;SDS011;15183;51.350;11.102;2023-03-13T09:44:30;2.25;;;2.00;;
27804;SDS011;15183;51.350;11.102;2023-03-13T09:50:14;5.32;;;3.50;;
27804;SDS011;15183;51.350;11.102;2023-03-13T09:52:46;3.67;;;2.17;;
27804;SDS011;15183;51.350;11.102;2023-03-13T10:01:47;2.72;;;2.00;;
27804;SDS011;15183;51.350;11.102;2023-03-13T10:06:44;2.60;;;2.40;;
27804;SDS011;15183;51.350;11.102;2023-03-13T10:09:17;7.70;;;2.88;;
27804;SDS011;15183;51.350;11.102;2023-03-13T10:12:05;4.20;;;2.58;;
27804;SDS011;15183;51.350;11.102;2023-03-13T10:14:53;3.13;;;2.35;;
27804;SDS011;15183;51.350;11.102;2023-03-13T10:17:58;2.25;;;2.05;;
27804;SDS011;15183;51.350;11.102;2023-03-13T10:20:34;4.57;;;3.75;;
27804;SDS011;15183;51.350;11.102;2023-03-13T10:23:04;3.92;;;2.95;;
27804;SDS011;15183;51.350;11.102;2023-03-13T10:25:34;5.40;;;4.60;;
27804;SDS011;15183;51.350;11.102;2023-03-13T10:28:03;5.45;;;3.80;;
27804;SDS011;15183;51.350;11.102;2023-03-13T10:30:36;6.88;;;5.05;;
27804;SDS011;15183;51.350;11.102;2023-03-13T10:35:38;3.38;;;2.88;;
27804;SDS011;15183;51.350;11.102;2023-03-13T10:38:14;5.30;;;3.40;;
27804;SDS011;15183;51.350;11.102;2023-03-13T10:40:55;4.93;;;3.25;;
27804;SDS011;15183;51.350;11.102;2023-03-13T10:48:52;2.15;;;1.95;;
27804;SDS011;15183;51.350;11.102;2023-03-13T10:51:21;3.60;;;2.38;;
27804;SDS011;15183;51.350;11.102;2023-03-13T10:53:55;2.22;;;1.73;;
27804;SDS011;15183;51.350;11.102;2023-03-13T10:56:27;2.83;;;2.58;;
27804;SDS011;15183;51.350;11.102;2023-03-13T10:58:55;3.75;;;2.70;;
27804;SDS011;15183;51.350;11.102;2023-03-13T11:01:23;2.45;;;2.22;;
27804;SDS011;15183;51.350;11.102;2023-03-13T11:04:17;1.80;;;1.70;;
27804;SDS011;15183;51.350;11.102;2023-03-13T11:07:03;5.70;;;2.42;;
27804;SDS011;15183;51.350;11.102;2023-03-13T11:09:49;2.40;;;1.70;;
27804;SDS011;15183;51.350;11.102;2023-03-13T11:12:24;3.83;;;2.60;;
27804;SDS011;15183;51.350;11.102;2023-03-13T11:14:55;3.20;;;2.38;;
27804;SDS011;15183;51.350;11.102;2023-03-13T11:17:38;2.38;;;2.15;;
27804;SDS011;15183;51.350;11.102;2023-03-13T11:20:14;5.28;;;2.50;;
27804;SDS011;15183;51.350;11.102;2023-03-13T11:23:09;3.17;;;1.80;;
27804;SDS011;15183;51.350;11.102;2023-03-13T11:25:46;2.83;;;1.85;;
27804;SDS011;15183;51.350;11.102;2023-03-13T11:34:04;3.45;;;2.50;;
27804;SDS011;15183;51.350;11.102;2023-03-13T11:36:56;11.70;;;7.53;;
27804;SDS011;15183;51.350;11.102;2023-03-13T11:51:06;4.68;;;2.70;;
27804;SDS011;15183;51.350;11.102;2023-03-13T11:56:34;4.28;;;3.15;;
27804;SDS011;15183;51.350;11.102;2023-03-13T12:05:00;2.53;;;1.92;;
27804;SDS011;15183;51.350;11.102;2023-03-13T12:07:35;1.85;;;1.67;;
27804;SDS011;15183;51.350;11.102;2023-03-13T12:10:11;5.20;;;2.47;;
27804;SDS011;15183;51.350;11.102;2023-03-13T12:13:04;2.45;;;1.85;;
27804;SDS011;15183;51.350;11.102;2023-03-13T12:15:46;3.45;;;1.50;;
27804;SDS011;15183;51.350;11.102;2023-03-13T12:18:30;2.67;;;1.38;;
27804;SDS011;15183;51.350;11.102;2023-03-13T12:21:20;1.85;;;1.50;;
27804;SDS011;15183;51.350;11.102;2023-03-13T12:38:36;2.63;;;1.23;;
27804;SDS011;15183;51.350;11.102;2023-03-13T12:44:19;1.60;;;1.30;;
27804;SDS011;15183;51.350;11.102;2023-03-13T12:46:46;1.95;;;1.20;;
27804;SDS011;15183;51.350;11.102;2023-03-13T12:49:53;2.53;;;1.30;;
27804;SDS011;15183;51.350;11.102;2023-03-13T12:52:46;3.03;;;1.20;;
27804;SDS011;15183;51.350;11.102;2023-03-13T12:58:46;3.50;;;1.25;;
27804;SDS011;15183;51.350;11.102;2023-03-13T13:06:23;2.75;;;1.55;;
27804;SDS011;15183;51.350;11.102;2023-03-13T13:09:22;2.45;;;1.10;;
27804;SDS011;15183;51.350;11.102;2023-03-13T13:11:56;3.88;;;1.10;;
27804;SDS011;15183;51.350;11.102;2023-03-13T13:23:20;1.88;;;1.25;;
27804;SDS011;15183;51.350;11.102;2023-03-13T13:25:53;2.10;;;0.95;;
27804;SDS011;15183;51.350;11.102;2023-03-13T13:28:40;1.27;;;1.08;;
27804;SDS011;15183;51.350;11.102;2023-03-13T13:39:44;2.05;;;0.95;;
27804;SDS011;15183;51.350;11.102;2023-03-13T13:45:02;1.05;;;0.80;;
27804;SDS011;15183;51.350;11.102;2023-03-13T13:47:43;1.52;;;1.25;;
27804;SDS011;15183;51.350;11.102;2023-03-13T13:50:25;3.22;;;1.50;;
27804;SDS011;15183;51.350;11.102;2023-03-13T13:53:22;0.98;;;0.98;;
27804;SDS011;15183;51.350;11.102;2023-03-13T13:55:55;2.25;;;1.25;;
27804;SDS011;15183;51.350;11.102;2023-03-13T13:58:26;0.85;;;0.85;;
27804;SDS011;15183;51.350;11.102;2023-03-13T14:01:01;5.38;;;1.10;;
27804;SDS011;15183;51.350;11.102;2023-03-13T14:03:37;1.75;;;1.00;;
27804;SDS011;15183;51.350;11.102;2023-03-13T14:06:16;3.30;;;1.10;;
27804;SDS011;15183;51.350;11.102;2023-03-13T14:08:54;0.82;;;0.80;;
27804;SDS011;15183;51.350;11.102;2023-03-13T14:11:34;2.25;;;1.05;;
27804;SDS011;15183;51.350;11.102;2023-03-13T14:14:14;1.10;;;1.02;;
27804;SDS011;15183;51.350;11.102;2023-03-13T14:16:52;2.75;;;1.48;;
27804;SDS011;15183;51.350;11.102;2023-03-13T14:19:25;0.95;;;0.82;;
27804;SDS011;15183;51.350;11.102;2023-03-13T14:21:58;2.53;;;1.05;;
27804;SDS011;15183;51.350;11.102;2023-03-13T14:24:34;1.77;;;1.17;;
27804;SDS011;15183;51.350;11.102;2023-03-13T14:27:01;2.35;;;0.90;;
27804;SDS011;15183;51.350;11.102;2023-03-13T14:29:39;1.00;;;0.90;;
27804;SDS011;15183;51.350;11.102;2023-03-13T14:32:05;1.00;;;1.00;;
27804;SDS011;15183;51.350;11.102;2023-03-13T14:34:32;1.13;;;0.90;;
27804;SDS011;15183;51.350;11.102;2023-03-13T14:37:00;1.75;;;1.08;;
27804;SDS011;15183;51.350;11.102;2023-03-13T14:39:43;2.35;;;1.15;;
27804;SDS011;15183;51.350;11.102;2023-03-13T14:42:11;3.90;;;0.95;;
27804;SDS011;15183;51.350;11.102;2023-03-13T14:44:40;1.20;;;1.10;;
27804;SDS011;15183;51.350;11.102;2023-03-13T14:47:18;1.50;;;1.17;;
27804;SDS011;15183;51.350;11.102;2023-03-13T14:50:07;1.85;;;1.65;;
27804;SDS011;15183;51.350;11.102;2023-03-13T14:52:43;1.27;;;1.17;;
27804;SDS011;15183;51.350;11.102;2023-03-13T15:00:49;1.55;;;1.00;;
27804;SDS011;15183;51.350;11.102;2023-03-13T15:05:48;1.45;;;1.10;;
27804;SDS011;15183;51.350;11.102;2023-03-13T15:08:35;2.38;;;1.50;;
27804;SDS011;15183;51.350;11.102;2023-03-13T15:13:43;3.88;;;1.75;;
27804;SDS011;15183;51.350;11.102;2023-03-13T15:16:14;3.50;;;1.60;;
27804;SDS011;15183;51.350;11.102;2023-03-13T15:18:45;3.58;;;1.90;;
27804;SDS011;15183;51.350;11.102;2023-03-13T15:23:40;1.40;;;1.30;;
27804;SDS011;15183;51.350;11.102;2023-03-13T15:26:07;3.42;;;1.83;;
27804;SDS011;15183;51.350;11.102;2023-03-13T15:28:34;1.67;;;1.25;;
27804;SDS011;15183;51.350;11.102;2023-03-13T15:31:01;2.60;;;1.50;;
27804;SDS011;15183;51.350;11.102;2023-03-13T15:33:28;2.40;;;1.25;;
27804;SDS011;15183;51.350;11.102;2023-03-13T15:35:55;1.95;;;1.15;;
27804;SDS011;15183;51.350;11.102;2023-03-13T15:38:22;1.63;;;1.50;;
27804;SDS011;15183;51.350;11.102;2023-03-13T15:40:52;2.08;;;1.60;;
27804;SDS011;15183;51.350;11.102;2023-03-13T15:43:20;2.65;;;1.15;;
27804;SDS011;15183;51.350;11.102;2023-03-13T15:45:48;1.73;;;1.20;;
27804;SDS011;15183;51.350;11.102;2023-03-13T15:48:17;1.75;;;1.40;;
27804;SDS011;15183;51.350;11.102;2023-03-13T15:50:56;3.05;;;1.35;;
27804;SDS011;15183;51.350;11.102;2023-03-13T15:53:29;2.33;;;1.15;;
27804;SDS011;15183;51.350;11.102;2023-03-13T15:56:00;1.80;;;1.20;;
27804;SDS011;15183;51.350;11.102;2023-03-13T15:58:35;1.25;;;1.20;;
27804;SDS011;15183;51.350;11.102;2023-03-13T16:01:02;2.45;;;1.10;;
27804;SDS011;15183;51.350;11.102;2023-03-13T16:03:28;2.83;;;1.10;;
27804;SDS011;15183;51.350;11.102;2023-03-13T16:05:55;1.80;;;1.30;;
27804;SDS011;15183;51.350;11.102;2023-03-13T16:08:23;3.72;;;1.40;;
27804;SDS011;15183;51.350;11.102;2023-03-13T16:10:52;1.45;;;1.00;;
27804;SDS011;15183;51.350;11.102;2023-03-13T16:13:19;2.15;;;1.38;;
27804;SDS011;15183;51.350;11.102;2023-03-13T16:15:46;0.80;;;0.80;;
27804;SDS011;15183;51.350;11.102;2023-03-13T16:18:21;1.95;;;1.10;;
27804;SDS011;15183;51.350;11.102;2023-03-13T16:20:50;1.38;;;1.20;;
27804;SDS011;15183;51.350;11.102;2023-03-13T16:23:17;4.15;;;1.30;;
27804;SDS011;15183;51.350;11.102;2023-03-13T16:25:44;1.75;;;1.25;;
27804;SDS011;15183;51.350;11.102;2023-03-13T16:28:13;1.45;;;1.20;;
27804;SDS011;15183;51.350;11.102;2023-03-13T16:30:39;1.23;;;0.82;;
27804;SDS011;15183;51.350;11.102;2023-03-13T16:33:08;1.15;;;0.98;;
27804;SDS011;15183;51.350;11.102;2023-03-13T16:35:35;3.97;;;1.88;;
27804;SDS011;15183;51.350;11.102;2023-03-13T16:38:02;4.18;;;2.30;;
27804;SDS011;15183;51.350;11.102;2023-03-13T16:40:30;1.40;;;1.30;;
27804;SDS011;15183;51.350;11.102;2023-03-13T16:42:58;1.70;;;1.00;;
27804;SDS011;15183;51.350;11.102;2023-03-13T16:45:25;1.42;;;1.00;;
27804;SDS011;15183;51.350;11.102;2023-03-13T16:47:52;2.03;;;1.30;;
27804;SDS011;15183;51.350;11.102;2023-03-13T16:50:25;1.55;;;1.30;;
27804;SDS011;15183;51.350;11.102;2023-03-13T16:52:59;1.73;;;1.60;;
27804;SDS011;15183;51.350;11.102;2023-03-13T16:55:26;1.65;;;1.25;;
27804;SDS011;15183;51.350;11.102;2023-03-13T16:57:53;2.72;;;2.45;;
27804;SDS011;15183;51.350;11.102;2023-03-13T17:00:22;3.28;;;1.60;;
27804;SDS011;15183;51.350;11.102;2023-03-13T17:02:51;2.08;;;1.75;;
27804;SDS011;15183;51.350;11.102;2023-03-13T17:05:18;1.33;;;1.23;;
27804;SDS011;15183;51.350;11.102;2023-03-13T17:07:46;1.45;;;1.27;;
27804;SDS011;15183;51.350;11.102;2023-03-13T17:10:17;1.92;;;1.05;;